Altura, Minnesota
Current Conditions -  °F | °C
As of 3:15 PM on Wednesday 26 Nov 2014 (Local Time) from KONA Reporting Station
Light Snow Light Snow  
Wind Chill: -2°   Ceiling: Unl
Heat Index: -2°   Visibility: 1.5mi
Dew Point: -4°   Wind: 3mph
Humidity: 86%   Direction: 320°NW
Pressure: 30.2"   Gusts: NA
Location:  44.07°N, 91.94°W
Report Text: KONA 262115Z AUTO 32003KT 1 1/2SM -SN SCT007 SCT014 M02/M04 A3020 RMK AO2
Loading
Personal Weather Stations






























Interactive Weather Map New forecast layout! Learn more

10-Day Weather Forecast

Advertisements
Track Severe Weather on mobile